| time (UTC) | temp C | wind direction | speed KPH | gust KPH | rain 1hr cm | rain 24hr cm | rain mn cm | humidity % | barometer mb |
| 20260510142444 | 17 | 64 | 3.2 | 6.4 | 0.00 | 0.00 | 0.00 | 69 | 1018.0 |
| 20260510140941 | 17 | 352 | 4.8 | 8.0 | 0.00 | 0.00 | 0.00 | 70 | 1017.9 |
| 20260510135437 | 17 | 140 | 1.6 | 8.0 | 0.00 | 0.00 | 0.00 | 71 | 1017.5 |
| 20260510133934 | 18 | 315 | 1.6 | 6.4 | 0.00 | 0.00 | 0.00 | 71 | 1017.5 |
| 20260510132429 | 17 | 105 | 1.6 | 6.4 | 0.00 | 0.00 | 0.00 | 73 | 1017.2 |
| 20260510130926 | 17 | 71 | 0.0 | 6.4 | 0.00 | 0.00 | 0.00 | 74 | 1017.1 |
| 20260510125421 | 17 | 47 | 3.2 | 6.4 | 0.00 | 0.00 | 0.00 | 76 | 1016.6 |
| 20260510123917 | 16 | 80 | 1.6 | 8.0 | 0.00 | 0.00 | 0.00 | 80 | 1016.5 |
| 20260510122416 | 15 | 87 | 1.6 | 4.8 | 0.00 | 0.00 | 0.00 | 82 | 1016.1 |
| 20260510120913 | 15 | 22 | 1.6 | 4.8 | 0.00 | 0.00 | 0.00 | 84 | 1015.7 |
| 20260510115408 | 14 | 123 | 1.6 | 4.8 | 0.00 | 0.00 | 0.00 | 84 | 1015.4 |
| 20260510113908 | 14 | 82 | 3.2 | 4.8 | 0.00 | 0.00 | 0.00 | 84 | 1014.9 |
| 20260510112404 | 14 | 101 | 3.2 | 4.8 | 0.00 | 0.00 | 0.00 | 84 | 1014.8 |
| 20260510110903 | 15 | 88 | 1.6 | 4.8 | 0.00 | 0.00 | 0.00 | 82 | 1014.5 |
| 20260510105402 | 15 | 111 | 3.2 | 4.8 | 0.00 | 0.00 | 0.00 | 83 | 1014.1 |
| 20260510103857 | 14 | 112 | 3.2 | 6.4 | 0.00 | 0.00 | 0.00 | 86 | 1014.0 |
| 20260510102358 | 14 | 136 | 3.2 | 3.2 | 0.00 | 0.00 | 0.00 | 84 | 1014.0 |
| 20260510100856 | 14 | 88 | 3.2 | 4.8 | 0.00 | 0.00 | 0.00 | 83 | 1013.8 |
| 20260510095350 | 15 | 92 | 3.2 | 4.8 | 0.00 | 0.00 | 0.00 | 82 | 1014.0 |
| 20260510093847 | 15 | 117 | 4.8 | 6.4 | 0.00 | 0.00 | 0.00 | 84 | 1013.9 |
| 20260510092342 | 15 | 118 | 4.8 | 6.4 | 0.00 | 0.00 | 0.00 | 80 | 1013.4 |
| 20260510090843 | 15 | 116 | 3.2 | 4.8 | 0.00 | 0.00 | 0.00 | 83 | 1013.1 |
| 20260510085342 | 15 | 94 | 1.6 | 4.8 | 0.00 | 0.00 | 0.00 | 83 | 1013.0 |
| 20260510083837 | 15 | 117 | 3.2 | 4.8 | 0.00 | 0.00 | 0.00 | 81 | 1012.9 |
| 20260510082333 | 16 | 103 | 4.8 | 6.4 | 0.00 | 0.00 | 0.00 | 77 | 1012.8 |
| 20260510080830 | 16 | 105 | 3.2 | 4.8 | 0.00 | 0.00 | 0.00 | 77 | 1012.7 |
| 20260510075325 | 16 | 127 | 1.6 | 4.8 | 0.00 | 0.00 | 0.00 | 78 | 1012.7 |
| 20260510073821 | 16 | 117 | 1.6 | 3.2 | 0.00 | 0.00 | 0.00 | 74 | 1012.7 |
| 20260510072316 | 17 | 109 | 1.6 | 4.8 | 0.00 | 0.00 | 0.00 | 76 | 1012.9 |
| 20260510070814 | 17 | 81 | 0.0 | 3.2 | 0.00 | 0.00 | 0.00 | 74 | 1012.7 |
| 20260510065313 | 17 | 130 | 3.2 | 3.2 | 0.00 | 0.00 | 0.00 | 75 | 1012.7 |
| 20260510063809 | 16 | 126 | 4.8 | 4.8 | 0.00 | 0.00 | 0.00 | 80 | 1012.2 |
| 20260510062306 | 16 | 112 | 4.8 | 6.4 | 0.00 | 0.00 | 0.00 | 82 | 1012.5 |
| 20260510060803 | 17 | 115 | 3.2 | 3.2 | 0.00 | 0.00 | 0.00 | 79 | 1012.3 |
| 20260510055301 | 17 | 115 | 1.6 | 3.2 | 0.00 | 0.00 | 0.00 | 78 | 1012.3 |
| 20260510053757 | 17 | 25 | 1.6 | 3.2 | 0.00 | 0.00 | 0.00 | 79 | 1012.6 |
| 20260510052257 | 16 | 139 | 3.2 | 3.2 | 0.00 | 0.00 | 0.00 | 78 | 1012.6 |
| 20260510050753 | 17 | 95 | 1.6 | 4.8 | 0.00 | 0.00 | 0.00 | 78 | 1012.2 |
| 20260510045249 | 17 | 113 | 1.6 | 3.2 | 0.00 | 0.00 | 0.00 | 77 | 1012.2 |
| 20260510043745 | 17 | 45 | 0.0 | 4.8 | 0.00 | 0.00 | 0.00 | 75 | 1012.2 |
| 20260510042241 | 16 | 119 | 3.2 | 4.8 | 0.00 | 0.00 | 0.00 | 80 | 1012.3 |
| 20260510040738 | 15 | 124 | 3.2 | 3.2 | 0.00 | 0.00 | 0.00 | 76 | 1012.4 |
| 20260510035238 | 15 | 106 | 3.2 | 4.8 | 0.00 | 0.00 | 0.00 | 82 | 1012.0 |
| 20260510033734 | 15 | 112 | 3.2 | 4.8 | 0.00 | 0.00 | 0.00 | 81 | 1012.1 |
| 20260510032230 | 17 | 112 | 3.2 | 4.8 | 0.00 | 0.00 | 0.00 | 74 | 1011.6 |
| 20260510030727 | 17 | 109 | 1.6 | 4.8 | 0.00 | 0.00 | 0.00 | 72 | 1011.7 |
| 20260510025225 | 17 | 106 | 3.2 | 4.8 | 0.00 | 0.00 | 0.00 | 70 | 1011.4 |
| 20260510023725 | 17 | 120 | 3.2 | 3.2 | 0.00 | 0.00 | 0.00 | 70 | 1011.1 |
| 20260510022225 | 18 | 109 | 3.2 | 4.8 | 0.00 | 0.00 | 0.00 | 64 | 1010.7 |
| 20260510020724 | 19 | 101 | 1.6 | 3.2 | 0.00 | 0.00 | 0.00 | 61 | 1010.3 |
| 20260510015224 | 20 | 52 | 0.0 | 3.2 | 0.00 | 0.00 | 0.00 | 54 | 1010.0 |
| 20260510013723 | 20 | 114 | 3.2 | 4.8 | 0.00 | 0.00 | 0.00 | 56 | 1009.7 |
| 20260510012220 | 22 | 111 | 3.2 | 3.2 | 0.00 | 0.00 | 0.00 | 51 | 1009.4 |
| 20260510010719 | 23 | 117 | 3.2 | 3.2 | 0.00 | 0.00 | 0.00 | 48 | 1009.3 |
| 20260510005214 | 24 | 109 | 1.6 | 3.2 | 0.00 | 0.00 | 0.00 | 46 | 1009.2 |
| 20260510003713 | 26 | 144 | 1.6 | 3.2 | 0.00 | 0.00 | 0.00 | 41 | 1009.1 |
| 20260510002211 | 28 | 142 | 0.0 | 1.6 | 0.00 | 0.00 | 0.00 | 39 | 1009.2 |
| 20260510000707 | 28 | 185 | 0.0 | 3.2 | 0.00 | 0.00 | 0.00 | 40 | 1009.0 |
| 20260509235204 | 28 | 187 | 3.2 | 4.8 | 0.00 | 0.00 | 0.00 | 37 | 1009.2 |
| 20260509233701 | 28 | 194 | 1.6 | 4.8 | 0.00 | 0.00 | 0.00 | 35 | 1009.0 |
| 20260509232157 | 29 | 201 | 1.6 | 3.2 | 0.00 | 0.00 | 0.00 | 35 | 1009.3 |
| 20260509230654 | 28 | 190 | 3.2 | 4.8 | 0.00 | 0.00 | 0.00 | 40 | 1009.1 |
| 20260509225154 | 31 | 226 | 0.0 | 3.2 | 0.00 | 0.00 | 0.00 | 28 | 1009.0 |
| 20260509223650 | 30 | 174 | 4.8 | 9.7 | 0.00 | 0.00 | 0.00 | 31 | 1009.0 |
| 20260509222145 | 30 | 205 | 6.4 | 6.4 | 0.00 | 0.00 | 0.00 | 32 | 1009.1 |
| 20260509220645 | 32 | 199 | 0.0 | 4.8 | 0.00 | 0.00 | 0.00 | 25 | 1009.3 |
| 20260509215140 | 31 | 180 | 3.2 | 4.8 | 0.00 | 0.00 | 0.00 | 28 | 1009.2 |
| 20260509213637 | 32 | 306 | 1.6 | 3.2 | 0.00 | 0.00 | 0.00 | 25 | 1009.3 |
| 20260509212133 | 30 | 201 | 3.2 | 6.4 | 0.00 | 0.00 | 0.00 | 34 | 1009.5 |
| 20260509210628 | 31 | 185 | 0.0 | 4.8 | 0.00 | 0.00 | 0.00 | 29 | 1009.5 |
| 20260509205126 | 31 | 319 | 3.2 | 4.8 | 0.00 | 0.00 | 0.00 | 26 | 1009.8 |
| 20260509203621 | 32 | 249 | 3.2 | 9.7 | 0.00 | 0.00 | 0.00 | 25 | 1009.8 |
| 20260509202121 | 31 | 304 | 1.6 | 6.4 | 0.00 | 0.00 | 0.00 | 26 | 1009.9 |
| 20260509200620 | 31 | 193 | 0.0 | 1.6 | 0.00 | 0.00 | 0.00 | 31 | 1010.0 |
| 20260509195119 | 30 | 188 | 1.6 | 3.2 | 0.00 | 0.00 | 0.00 | 29 | 1010.2 |
| 20260509193617 | 30 | 263 | 1.6 | 4.8 | 0.00 | 0.00 | 0.00 | 26 | 1010.0 |
| 20260509192117 | 30 | 230 | 1.6 | 4.8 | 0.00 | 0.00 | 0.00 | 35 | 1010.4 |
| 20260509190617 | 31 | 250 | 0.0 | 4.8 | 0.00 | 0.00 | 0.00 | 31 | 1010.3 |
| 20260509185113 | 30 | 54 | 0.0 | 8.0 | 0.00 | 0.00 | 0.00 | 32 | 1010.3 |
| 20260509183609 | 30 | 226 | 3.2 | 12.9 | 0.00 | 0.00 | 0.00 | 28 | 1010.6 |
| 20260509182104 | 29 | 268 | 1.6 | 3.2 | 0.00 | 0.00 | 0.00 | 30 | 1010.4 |
| 20260509180601 | 29 | 355 | 0.0 | 6.4 | 0.00 | 0.00 | 0.00 | 29 | 1010.5 |
| 20260509175057 | 30 | 118 | 3.2 | 4.8 | 0.00 | 0.00 | 0.00 | 29 | 1010.7 |
| 20260509173555 | 29 | 216 | 1.6 | 3.2 | 0.00 | 0.00 | 0.00 | 38 | 1010.5 |
| 20260509172050 | 29 | 160 | 4.8 | 4.8 | 0.00 | 0.00 | 0.00 | 41 | 1010.8 |
| 20260509170550 | 28 | 215 | 1.6 | 3.2 | 0.00 | 0.00 | 0.00 | 38 | 1010.8 |
| 20260509165046 | 28 | 70 | 0.0 | 4.8 | 0.00 | 0.00 | 0.00 | 37 | 1010.8 |
| 20260509163542 | 28 | 100 | 0.0 | 9.7 | 0.00 | 0.00 | 0.00 | 37 | 1010.9 |
| 20260509162042 | 27 | 349 | 0.0 | 6.4 | 0.00 | 0.00 | 0.00 | 44 | 1010.8 |
| 20260509160541 | 27 | 152 | 0.0 | 3.2 | 0.00 | 0.00 | 0.00 | 47 | 1010.7 |
| 20260509155040 | 26 | 310 | 1.6 | 3.2 | 0.00 | 0.00 | 0.00 | 46 | 1010.7 |
| 20260509153537 | 25 | 195 | 3.2 | 4.8 | 0.00 | 0.00 | 0.00 | 55 | 1010.7 |
| 20260509152033 | 25 | 177 | 4.8 | 6.4 | 0.00 | 0.00 | 0.00 | 56 | 1010.9 |
| 20260509150530 | 24 | 143 | 3.2 | 4.8 | 0.00 | 0.00 | 0.00 | 59 | 1010.9 |
| 20260509145031 | 23 | 139 | 0.0 | 3.2 | 0.00 | 0.00 | 0.00 | 62 | 1010.7 |
| 20260509143528 | 23 | 66 | 0.0 | 3.2 | 0.00 | 0.00 | 0.00 | 64 | 1010.8 |